createdAt,value
2023-11-12T00:04:58.003Z,12.00
2023-11-12T00:10:00.056Z,12.00
2023-11-12T00:15:02.247Z,12.10
2023-11-12T00:20:07.421Z,12.10
2023-11-12T00:25:14.465Z,12.20
2023-11-12T00:30:17.129Z,12.20
2023-11-12T00:35:19.846Z,12.30
2023-11-12T00:40:22.626Z,12.30
2023-11-12T00:45:24.717Z,12.40
2023-11-12T00:50:26.806Z,12.40
2023-11-12T00:55:28.866Z,12.50
2023-11-12T01:00:31.397Z,12.50
2023-11-12T01:05:33.718Z,12.50
2023-11-12T01:10:35.809Z,12.60
2023-11-12T01:15:37.912Z,12.60
2023-11-12T01:20:40.111Z,12.70
2023-11-12T01:25:45.025Z,12.60
2023-11-12T01:30:47.055Z,12.70
2023-11-12T01:35:49.118Z,12.70
2023-11-12T01:40:51.206Z,12.70
2023-11-12T01:45:53.278Z,12.70
2023-11-12T01:50:55.546Z,12.70
2023-11-12T01:55:58.280Z,12.70
2023-11-12T02:01:01.567Z,12.60
2023-11-12T02:06:04.867Z,12.60
2023-11-12T02:11:10.129Z,12.60
2023-11-12T02:16:12.363Z,12.60
2023-11-12T02:21:14.547Z,12.50
2023-11-12T02:26:16.865Z,12.50
2023-11-12T02:31:19.049Z,12.60
2023-11-12T02:36:26.508Z,12.60
2023-11-12T02:41:29.065Z,12.60
2023-11-12T02:46:31.156Z,12.60
2023-11-12T02:51:33.234Z,12.60
2023-11-12T02:56:35.854Z,12.60
2023-11-12T03:01:38.038Z,12.60
2023-11-12T03:06:40.115Z,12.70
2023-11-12T03:11:42.274Z,12.60
2023-11-12T03:16:44.911Z,12.70
2023-11-12T03:21:54.224Z,12.70
2023-11-12T03:26:56.356Z,12.70
2023-11-12T03:31:59.518Z,12.80
2023-11-12T03:37:01.603Z,12.80
2023-11-12T03:42:03.730Z,12.80
2023-11-12T03:47:06.088Z,12.70
2023-11-12T03:52:09.744Z,12.70
2023-11-12T03:57:11.834Z,12.70
2023-11-12T04:02:14.023Z,12.70
2023-11-12T04:07:17.190Z,12.80
2023-11-12T04:12:19.372Z,12.80
2023-11-12T04:17:21.838Z,12.80
2023-11-12T04:22:24.480Z,12.80
2023-11-12T04:27:26.555Z,12.80
2023-11-12T04:32:28.758Z,12.80
2023-11-12T04:37:30.773Z,12.80
2023-11-12T04:42:33.426Z,12.80
2023-11-12T04:47:35.529Z,12.80
2023-11-12T04:52:37.620Z,12.80
2023-11-12T04:57:39.939Z,12.80
2023-11-12T05:02:42.081Z,12.90
2023-11-12T05:07:44.421Z,12.90
2023-11-12T05:12:46.972Z,12.90
2023-11-12T05:17:49.993Z,12.90
2023-11-12T05:22:53.761Z,12.90
2023-11-12T05:27:56.178Z,12.90
2023-11-12T05:32:58.703Z,12.90
2023-11-12T05:38:00.870Z,12.90
2023-11-12T05:43:03.081Z,12.90
2023-11-12T05:48:05.391Z,12.90
2023-11-12T05:53:07.440Z,12.90
2023-11-12T05:58:09.842Z,12.80
2023-11-12T06:03:11.943Z,12.80
2023-11-12T06:08:14.108Z,12.80
2023-11-12T06:13:16.799Z,12.80
2023-11-12T06:18:19.142Z,12.70
2023-11-12T06:23:21.275Z,12.80
2023-11-12T06:28:24.077Z,12.70
2023-11-12T06:33:26.351Z,12.70
2023-11-12T06:38:28.481Z,12.70
2023-11-12T06:43:30.465Z,12.70
2023-11-12T06:48:33.096Z,12.80
2023-11-12T06:53:35.226Z,12.70
2023-11-12T06:58:37.274Z,12.80
2023-11-12T07:03:39.834Z,12.80
2023-11-12T07:08:42.313Z,12.80
2023-11-12T07:13:44.384Z,12.80
2023-11-12T07:18:53.895Z,12.80
2023-11-12T07:23:57.744Z,12.80
2023-11-12T07:28:59.982Z,12.80
2023-11-12T07:34:02.048Z,12.80
2023-11-12T07:39:04.702Z,12.80
2023-11-12T07:44:06.881Z,12.80
2023-11-12T07:49:09.355Z,12.80
2023-11-12T07:54:11.352Z,12.80
2023-11-12T07:59:13.426Z,12.80
2023-11-12T08:04:15.554Z,12.80
2023-11-12T08:09:17.768Z,12.80
2023-11-12T08:14:19.832Z,12.80
2023-11-12T08:19:22.337Z,12.90
2023-11-12T08:24:24.397Z,12.90
2023-11-12T08:29:26.421Z,13.00
2023-11-12T08:34:28.503Z,13.00
2023-11-12T08:39:30.572Z,13.00
2023-11-12T08:44:32.590Z,13.10
2023-11-12T08:49:34.591Z,13.10
2023-11-12T08:54:36.654Z,13.10
2023-11-12T08:59:38.723Z,13.10
2023-11-12T09:04:40.769Z,13.20
2023-11-12T09:09:42.965Z,13.20
2023-11-12T09:14:44.985Z,13.20
2023-11-12T09:19:46.999Z,13.20
2023-11-12T09:25:00.791Z,13.30
2023-11-12T09:30:12.022Z,13.30
2023-11-12T09:35:15.892Z,13.30
2023-11-12T09:40:18.191Z,13.40
2023-11-12T09:45:20.933Z,13.50
2023-11-12T09:50:24.274Z,13.50
2023-11-12T09:55:26.491Z,13.50
2023-11-12T10:00:28.892Z,13.50
2023-11-12T10:05:33.362Z,13.50
2023-11-12T10:10:35.916Z,13.50
2023-11-12T10:15:38.399Z,13.50
2023-11-12T10:20:41.636Z,13.50
2023-11-12T10:25:48.659Z,13.50
2023-11-12T10:30:55.132Z,13.50
2023-11-12T10:35:57.740Z,13.50
2023-11-12T10:41:03.247Z,13.50
2023-11-12T10:46:08.176Z,13.60
2023-11-12T10:51:13.341Z,13.60
2023-11-12T10:56:17.444Z,13.70
2023-11-12T11:01:19.900Z,13.70
2023-11-12T11:06:23.974Z,13.70
2023-11-12T11:11:26.516Z,13.70
2023-11-12T11:16:51.625Z,13.80
2023-11-12T11:22:33.767Z,13.80
2023-11-12T11:27:36.054Z,13.80
2023-11-12T11:32:38.652Z,13.80
2023-11-12T11:38:13.602Z,13.80
2023-11-12T11:43:24.981Z,13.80
2023-11-12T11:48:27.238Z,13.90
2023-11-12T11:53:30.063Z,13.90
2023-11-12T11:58:52.654Z,14.00
2023-11-12T12:04:07.487Z,14.10
2023-11-12T12:09:14.482Z,14.20
2023-11-12T12:14:16.876Z,14.20
2023-11-12T12:19:22.330Z,14.30
2023-11-12T12:24:24.694Z,14.30
2023-11-12T12:29:26.997Z,14.40
2023-11-12T12:34:40.324Z,14.40
2023-11-12T12:40:05.409Z,14.50
2023-11-12T12:45:17.970Z,14.50
2023-11-12T12:50:31.324Z,14.50
2023-11-12T12:55:33.405Z,14.50
2023-11-12T13:00:37.132Z,14.50
2023-11-12T13:05:39.715Z,14.50
2023-11-12T13:10:41.698Z,14.50
2023-11-12T13:15:44.258Z,14.50
2023-11-12T13:20:46.893Z,14.50
2023-11-12T13:25:51.088Z,14.40
2023-11-12T13:30:54.554Z,14.50
2023-11-12T13:36:01.190Z,14.40
2023-11-12T13:41:03.438Z,14.50
2023-11-12T13:46:08.188Z,14.40
2023-11-12T13:51:11.017Z,14.40
2023-11-12T13:56:13.820Z,14.40
2023-11-12T14:01:20.971Z,14.40
2023-11-12T14:06:23.151Z,14.30
2023-11-12T14:11:25.140Z,14.30
2023-11-12T14:16:27.655Z,14.30
2023-11-12T14:21:30.535Z,14.40
2023-11-12T14:26:33.727Z,14.40
2023-11-12T14:31:36.027Z,14.40
2023-11-12T14:36:38.266Z,14.40
2023-11-12T14:41:41.651Z,14.40
2023-11-12T14:46:44.890Z,14.40
2023-11-12T14:51:47.612Z,14.40
2023-11-12T14:56:53.685Z,14.40
2023-11-12T15:01:55.889Z,14.40
2023-11-12T15:06:57.940Z,14.40
2023-11-12T15:12:01.219Z,14.40
2023-11-12T15:17:03.402Z,14.40
2023-11-12T15:22:05.644Z,14.40
2023-11-12T15:27:07.814Z,14.30
2023-11-12T15:32:09.824Z,14.40
2023-11-12T15:37:11.997Z,14.30
2023-11-12T15:42:15.379Z,14.30
2023-11-12T15:47:20.455Z,14.30
2023-11-12T15:52:25.438Z,14.30
2023-11-12T15:57:27.576Z,14.30
2023-11-12T16:02:30.929Z,14.30
2023-11-12T16:07:33.485Z,14.20
2023-11-12T16:12:35.573Z,14.20
2023-11-12T16:17:38.283Z,14.10
2023-11-12T16:22:40.343Z,14.10
2023-11-12T16:27:42.480Z,14.10
2023-11-12T16:32:44.683Z,14.10
2023-11-12T16:37:49.485Z,14.10
2023-11-12T16:42:52.461Z,14.10
2023-11-12T16:47:55.071Z,14.10
2023-11-12T16:52:57.166Z,14.10
2023-11-12T16:57:59.249Z,14.10
2023-11-12T17:03:01.784Z,14.00
2023-11-12T17:08:05.486Z,14.00
2023-11-12T17:13:08.553Z,14.00
2023-11-12T17:18:10.640Z,14.00
2023-11-12T17:23:13.823Z,14.00
2023-11-12T17:28:15.915Z,14.00
2023-11-12T17:33:17.957Z,14.00
2023-11-12T17:38:19.943Z,14.00
2023-11-12T17:43:23.465Z,14.00
2023-11-12T17:48:25.602Z,13.90
2023-11-12T17:53:27.615Z,13.90
2023-11-12T17:58:29.756Z,13.90
2023-11-12T18:03:34.857Z,13.90
2023-11-12T18:08:39.935Z,13.90
2023-11-12T18:13:42.179Z,13.80
2023-11-12T18:18:44.286Z,13.80
2023-11-12T18:23:46.386Z,13.70
2023-11-12T18:28:48.459Z,13.70
2023-11-12T18:33:51.862Z,13.70
2023-11-12T18:38:53.946Z,13.60
2023-11-12T18:43:55.993Z,13.60
2023-11-12T18:48:58.095Z,13.50
2023-11-12T18:54:00.892Z,13.50
2023-11-12T18:59:07.421Z,13.50
2023-11-12T19:04:10.583Z,13.50
2023-11-12T19:09:16.923Z,13.50
2023-11-12T19:14:18.995Z,13.50
2023-11-12T19:19:21.283Z,13.50
2023-11-12T19:24:23.408Z,13.50
2023-11-12T19:29:26.627Z,13.50
2023-11-12T19:34:30.650Z,13.40
2023-11-12T19:39:34.058Z,13.40
2023-11-12T19:44:36.648Z,13.40
2023-11-12T19:49:38.781Z,13.40
2023-11-12T19:54:42.563Z,13.40
2023-11-12T19:59:44.636Z,13.40
2023-11-12T20:04:46.697Z,13.40
2023-11-12T20:09:49.025Z,13.40
2023-11-12T20:14:51.037Z,13.40
2023-11-12T20:19:53.229Z,13.40
2023-11-12T20:24:55.290Z,13.50
2023-11-12T20:29:59.129Z,13.50
2023-11-12T20:35:01.349Z,13.50
2023-11-12T20:40:09.589Z,13.60
2023-11-12T20:45:18.309Z,13.60
2023-11-12T20:50:21.039Z,13.70
2023-11-12T20:55:23.316Z,13.70
2023-11-12T21:00:27.544Z,13.70
2023-11-12T21:05:30.186Z,13.70
2023-11-12T21:10:35.480Z,13.70
2023-11-12T21:15:38.418Z,13.60
2023-11-12T21:20:40.492Z,13.70
2023-11-12T21:25:42.519Z,13.70
2023-11-12T21:30:46.230Z,13.70
2023-11-12T21:35:54.731Z,13.70
2023-11-12T21:40:57.321Z,13.70
2023-11-12T21:45:59.912Z,13.70
2023-11-12T21:51:02.059Z,13.70
2023-11-12T21:56:05.256Z,13.80
2023-11-12T22:01:11.287Z,13.80
2023-11-12T22:06:13.562Z,13.90
2023-11-12T22:11:15.630Z,13.90
2023-11-12T22:16:17.716Z,14.00
2023-11-12T22:21:19.733Z,14.10
2023-11-12T22:26:21.759Z,14.20
2023-11-12T22:31:24.348Z,14.20
2023-11-12T22:36:26.797Z,14.30
2023-11-12T22:41:28.860Z,14.30
2023-11-12T22:46:32.254Z,14.40
2023-11-12T22:51:35.078Z,14.40
2023-11-12T22:56:38.162Z,14.40
2023-11-12T23:01:40.368Z,14.40
2023-11-12T23:06:42.400Z,14.50
2023-11-12T23:11:44.439Z,14.50
2023-11-12T23:16:48.745Z,14.50
2023-11-12T23:21:52.202Z,14.50
2023-11-12T23:26:54.200Z,14.50
2023-11-12T23:31:56.482Z,14.50
2023-11-12T23:37:00.169Z,14.50
2023-11-12T23:42:02.302Z,14.60
2023-11-12T23:47:04.856Z,14.60
2023-11-12T23:52:07.198Z,14.60
2023-11-12T23:57:12.617Z,14.60
